createdAt,value
2019-06-26T00:00:18.891Z,62.82
2019-06-26T00:01:18.877Z,63.39
2019-06-26T00:02:18.858Z,63.12
2019-06-26T00:03:18.847Z,63.29
2019-06-26T00:04:18.837Z,63.49
2019-06-26T00:05:18.900Z,63.39
2019-06-26T00:06:18.815Z,63.79
2019-06-26T00:07:18.827Z,63.89
2019-06-26T00:08:18.793Z,63.89
2019-06-26T00:09:18.784Z,63.89
2019-06-26T00:10:18.781Z,63.79
2019-06-26T00:11:18.762Z,63.89
2019-06-26T00:12:18.777Z,63.59
2019-06-26T00:13:26.210Z,63.79
2019-06-26T00:14:19.727Z,63.59
2019-06-26T00:15:18.728Z,63.68
2019-06-26T00:16:18.707Z,63.56
2019-06-26T00:17:18.700Z,64.15
2019-06-26T00:18:18.691Z,64.64
2019-06-26T00:19:18.680Z,63.85
2019-06-26T00:20:18.677Z,64.54
2019-06-26T00:21:21.866Z,64.64
2019-06-26T00:22:18.644Z,64.35
2019-06-26T00:23:18.632Z,64.48
2019-06-26T00:24:18.622Z,63.98
2019-06-26T00:25:18.618Z,64.87
2019-06-26T00:26:18.601Z,64.18
2019-06-26T00:27:18.588Z,64.28
2019-06-26T00:28:18.581Z,64.54
2019-06-26T00:29:18.568Z,64.64
2019-06-26T00:30:18.572Z,64.87
2019-06-26T00:31:18.547Z,64.87
2019-06-26T00:32:18.540Z,65.37
2019-06-26T00:33:18.532Z,65.27
2019-06-26T00:34:18.514Z,65.27
2019-06-26T00:35:18.513Z,65.47
2019-06-26T00:36:18.493Z,65.37
2019-06-26T00:37:18.482Z,65.86
2019-06-26T00:38:18.470Z,65.56
2019-06-26T00:39:18.539Z,65.47
2019-06-26T00:40:18.464Z,65.47
2019-06-26T00:41:18.439Z,65.86
2019-06-26T00:42:18.426Z,65.86
2019-06-26T00:43:18.414Z,66.55
2019-06-26T00:44:18.409Z,67.05
2019-06-26T00:45:18.393Z,66.26
2019-06-26T00:46:18.393Z,66.06
2019-06-26T00:47:18.370Z,66.75
2019-06-26T00:48:18.360Z,66.65
2019-06-26T00:49:18.350Z,66.65
2019-06-26T00:50:18.338Z,66.58
2019-06-26T00:51:18.336Z,66.65
2019-06-26T00:52:18.317Z,66.95
2019-06-26T00:53:18.306Z,66.98
2019-06-26T00:54:18.300Z,67.05
2019-06-26T00:55:18.283Z,67.28
2019-06-26T00:56:18.281Z,66.88
2019-06-26T00:57:18.262Z,67.28
2019-06-26T00:58:18.256Z,67.18
2019-06-26T00:59:18.241Z,67.18
2019-06-26T01:00:18.229Z,67.68
2019-06-26T01:01:18.231Z,67.38
2019-06-26T01:02:18.208Z,67.47
2019-06-26T01:03:18.196Z,68.17
2019-06-26T01:04:18.189Z,67.47
2019-06-26T01:05:18.229Z,67.38
2019-06-26T01:06:18.173Z,67.18
2019-06-26T01:07:18.155Z,67.38
2019-06-26T01:08:18.143Z,68.07
2019-06-26T01:09:18.131Z,67.68
2019-06-26T01:10:18.131Z,67.77
2019-06-26T01:11:21.521Z,68.17
2019-06-26T01:12:18.100Z,68.17
2019-06-26T01:13:18.089Z,67.87
2019-06-26T01:14:18.077Z,68.20
2019-06-26T01:15:18.076Z,68.07
2019-06-26T01:16:18.067Z,68.80
2019-06-26T01:17:18.045Z,68.57
2019-06-26T01:18:18.034Z,68.10
2019-06-26T01:19:18.024Z,68.50
2019-06-26T01:20:18.012Z,68.80
2019-06-26T01:21:18.010Z,68.99
2019-06-26T01:22:17.997Z,68.99
2019-06-26T01:23:17.979Z,69.19
2019-06-26T01:24:17.972Z,69.19
2019-06-26T01:25:17.958Z,69.09
2019-06-26T01:26:17.969Z,69.62
2019-06-26T01:27:17.937Z,69.79
2019-06-26T01:28:17.925Z,69.32
2019-06-26T01:29:17.914Z,69.82
2019-06-26T01:30:17.904Z,69.23
2019-06-26T01:31:17.904Z,70.02
2019-06-26T01:32:17.954Z,70.02
2019-06-26T01:33:17.871Z,70.02
2019-06-26T01:34:17.861Z,70.31
2019-06-26T01:35:17.851Z,69.82
2019-06-26T01:36:17.855Z,70.31
2019-06-26T01:37:17.831Z,70.12
2019-06-26T01:38:17.816Z,70.31
2019-06-26T01:39:17.807Z,70.51
2019-06-26T01:40:17.796Z,70.61
2019-06-26T01:41:17.804Z,70.61
2019-06-26T01:42:17.776Z,70.81
2019-06-26T01:43:17.767Z,70.81
2019-06-26T01:44:17.756Z,70.81
2019-06-26T01:45:17.744Z,70.91
2019-06-26T01:46:17.741Z,70.42
2019-06-26T01:47:17.718Z,70.91
2019-06-26T01:48:17.709Z,70.75
2019-06-26T01:49:17.697Z,71.34
2019-06-26T01:50:17.687Z,71.24
2019-06-26T01:51:17.683Z,71.34
2019-06-26T01:52:17.665Z,71.64
2019-06-26T01:53:17.654Z,72.03
2019-06-26T01:54:17.648Z,71.44
2019-06-26T01:55:17.635Z,71.83
2019-06-26T01:56:17.628Z,71.73
2019-06-26T01:57:17.612Z,71.24
2019-06-26T01:58:17.603Z,70.45
2019-06-26T01:59:17.589Z,72.03
2019-06-26T02:00:17.577Z,70.65
2019-06-26T02:01:17.574Z,71.57
2019-06-26T02:02:17.555Z,70.98
2019-06-26T02:03:17.545Z,70.94
2019-06-26T02:04:17.535Z,71.08
2019-06-26T02:05:17.522Z,71.08
2019-06-26T02:06:17.520Z,71.47
2019-06-26T02:07:17.501Z,71.47
2019-06-26T02:08:17.491Z,71.67
2019-06-26T02:09:17.478Z,71.37
2019-06-26T02:10:17.467Z,72.07
2019-06-26T02:11:17.469Z,72.36
2019-06-26T02:12:17.447Z,72.60
2019-06-26T02:13:17.435Z,73.29
2019-06-26T02:14:30.480Z,72.50
2019-06-26T02:15:18.413Z,72.70
2019-06-26T02:16:17.422Z,73.29
2019-06-26T02:17:17.408Z,73.33
2019-06-26T02:18:17.378Z,72.73
2019-06-26T02:19:17.367Z,73.63
2019-06-26T02:20:17.358Z,73.49
2019-06-26T02:21:17.349Z,73.79
2019-06-26T02:22:17.346Z,73.72
2019-06-26T02:23:17.323Z,73.43
2019-06-26T02:24:17.314Z,73.82
2019-06-26T02:25:17.301Z,74.12
2019-06-26T02:26:17.291Z,73.72
2019-06-26T02:27:17.287Z,73.82
2019-06-26T02:28:17.267Z,74.22
2019-06-26T02:29:17.257Z,74.22
2019-06-26T02:30:17.251Z,73.93
2019-06-26T02:31:17.234Z,74.22
2019-06-26T02:32:17.232Z,74.32
2019-06-26T02:33:17.212Z,74.52
2019-06-26T02:34:17.205Z,74.12
2019-06-26T02:35:17.198Z,74.62
2019-06-26T02:36:17.181Z,74.72
2019-06-26T02:37:17.181Z,74.42
2019-06-26T02:38:17.162Z,75.12
2019-06-26T02:39:17.148Z,74.42
2019-06-26T02:40:17.183Z,74.12
2019-06-26T02:41:17.124Z,74.72
2019-06-26T02:42:17.120Z,74.42
2019-06-26T02:43:17.108Z,75.12
2019-06-26T02:44:17.099Z,75.31
2019-06-26T02:45:17.079Z,74.91
2019-06-26T02:46:17.067Z,74.62
2019-06-26T02:47:20.152Z,75.35
2019-06-26T02:48:17.056Z,75.21
2019-06-26T02:49:17.035Z,75.15
2019-06-26T02:50:17.024Z,75.25
2019-06-26T02:51:17.013Z,75.15
2019-06-26T02:52:17.023Z,75.15
2019-06-26T02:53:16.991Z,75.05
2019-06-26T02:54:16.987Z,74.76
2019-06-26T02:55:16.968Z,75.25
2019-06-26T02:56:16.961Z,75.05
2019-06-26T02:57:16.993Z,74.76
2019-06-26T02:58:16.935Z,75.15
2019-06-26T02:59:16.925Z,74.95
2019-06-26T03:00:16.914Z,74.85
2019-06-26T03:01:16.908Z,74.85
2019-06-26T03:02:16.888Z,74.85
2019-06-26T03:03:16.890Z,74.95
2019-06-26T03:04:16.867Z,75.15
2019-06-26T03:05:16.856Z,74.95
2019-06-26T03:06:16.844Z,75.25
2019-06-26T03:07:16.835Z,74.85
2019-06-26T03:08:16.831Z,74.95
2019-06-26T03:09:16.813Z,74.85
2019-06-26T03:10:16.799Z,75.35
2019-06-26T03:11:16.788Z,75.15
2019-06-26T03:12:16.787Z,75.25
2019-06-26T03:13:16.777Z,75.25
2019-06-26T03:14:16.756Z,74.95
2019-06-26T03:15:16.744Z,75.25
2019-06-26T03:16:16.737Z,75.15
2019-06-26T03:17:16.721Z,75.05
2019-06-26T03:18:16.720Z,74.99
2019-06-26T03:19:16.700Z,75.09
2019-06-26T03:20:16.689Z,74.95
2019-06-26T03:21:16.678Z,75.18
2019-06-26T03:22:16.665Z,74.85
2019-06-26T03:23:16.666Z,75.09
2019-06-26T03:24:16.645Z,74.99
2019-06-26T03:25:16.632Z,74.89
2019-06-26T03:26:16.621Z,75.09
2019-06-26T03:27:16.610Z,75.09
2019-06-26T03:28:16.609Z,74.79
2019-06-26T03:29:16.587Z,74.99
2019-06-26T03:30:16.580Z,75.38
2019-06-26T03:31:16.571Z,74.79
2019-06-26T03:32:16.557Z,74.79
2019-06-26T03:33:16.557Z,74.89
2019-06-26T03:34:16.535Z,74.99
2019-06-26T03:35:16.524Z,75.09
2019-06-26T03:36:16.513Z,75.09
2019-06-26T03:37:16.517Z,74.89
2019-06-26T03:38:16.501Z,75.18
2019-06-26T03:39:16.478Z,74.99
2019-06-26T03:40:16.467Z,75.09
2019-06-26T03:41:16.496Z,75.29
2019-06-26T03:42:16.444Z,75.09
2019-06-26T03:43:16.442Z,75.09
2019-06-26T03:44:16.421Z,75.48
2019-06-26T03:45:25.523Z,75.18
2019-06-26T03:46:17.398Z,75.48
2019-06-26T03:47:16.389Z,75.48
2019-06-26T03:48:16.387Z,75.68
2019-06-26T03:49:16.367Z,75.78
2019-06-26T03:50:16.361Z,75.48
2019-06-26T03:51:16.345Z,75.18
2019-06-26T03:52:16.334Z,75.38
2019-06-26T03:53:16.333Z,75.48
2019-06-26T03:54:16.315Z,74.89
2019-06-26T03:55:16.306Z,75.38
2019-06-26T03:56:16.291Z,75.68
2019-06-26T03:57:16.285Z,75.48
2019-06-26T03:58:16.286Z,75.18
2019-06-26T03:59:16.260Z,75.29
2019-06-26T04:00:16.248Z,75.38
2019-06-26T04:01:16.275Z,75.18
2019-06-26T04:02:16.227Z,75.29
2019-06-26T04:03:16.328Z,75.18
2019-06-26T04:04:16.229Z,74.59
2019-06-26T04:05:16.190Z,75.18
2019-06-26T04:06:16.180Z,74.49
2019-06-26T04:07:16.170Z,74.49
2019-06-26T04:08:16.192Z,75.09
2019-06-26T04:09:16.155Z,74.09
2019-06-26T04:10:16.136Z,74.69
2019-06-26T04:11:16.128Z,74.89
2019-06-26T04:12:16.117Z,74.39
2019-06-26T04:13:16.102Z,75.18
2019-06-26T04:14:16.104Z,73.99
2019-06-26T04:15:16.080Z,75.15
2019-06-26T04:16:16.068Z,73.86
2019-06-26T04:17:16.071Z,74.46
2019-06-26T04:18:16.047Z,73.86
2019-06-26T04:19:16.045Z,73.90
2019-06-26T04:20:16.025Z,74.16
2019-06-26T04:21:16.013Z,74.26
2019-06-26T04:22:16.005Z,74.16
2019-06-26T04:23:15.991Z,74.26
2019-06-26T04:24:15.990Z,74.16
2019-06-26T04:25:15.970Z,74.06
2019-06-26T04:26:16.021Z,73.63
2019-06-26T04:27:15.951Z,73.33
2019-06-26T04:28:15.939Z,73.23
2019-06-26T04:29:15.947Z,73.23
2019-06-26T04:30:15.913Z,73.23
2019-06-26T04:31:15.903Z,73.93
2019-06-26T04:32:15.894Z,73.63
2019-06-26T04:33:15.887Z,73.72
2019-06-26T04:34:15.945Z,73.53
2019-06-26T04:35:15.859Z,73.72
2019-06-26T04:36:15.846Z,73.63
2019-06-26T04:37:15.836Z,73.33
2019-06-26T04:38:15.838Z,73.23
2019-06-26T04:39:15.822Z,73.23
2019-06-26T04:40:15.813Z,73.13
2019-06-26T04:41:15.791Z,72.73
2019-06-26T04:42:15.780Z,72.44
2019-06-26T04:43:15.771Z,72.33
2019-06-26T04:44:15.769Z,72.53
2019-06-26T04:45:15.748Z,72.53
2019-06-26T04:46:15.737Z,72.53
2019-06-26T04:47:15.728Z,71.84
2019-06-26T04:48:15.720Z,72.20
2019-06-26T04:49:15.715Z,71.74
2019-06-26T04:50:15.697Z,71.51
2019-06-26T04:51:15.682Z,71.74
2019-06-26T04:52:15.673Z,71.70
2019-06-26T04:53:15.658Z,71.81
2019-06-26T04:54:15.650Z,71.14
2019-06-26T04:55:15.676Z,70.72
2019-06-26T04:56:15.625Z,70.91
2019-06-26T04:57:15.614Z,71.25
2019-06-26T04:58:15.606Z,70.72
2019-06-26T04:59:15.592Z,70.12
2019-06-26T05:00:15.590Z,69.92
2019-06-26T05:01:15.571Z,69.72
2019-06-26T05:02:15.559Z,70.02
2019-06-26T05:03:15.553Z,69.92
2019-06-26T05:04:15.540Z,69.69
2019-06-26T05:05:15.535Z,69.69
2019-06-26T05:06:15.515Z,69.89
2019-06-26T05:07:15.514Z,69.69
2019-06-26T05:08:15.549Z,69.79
2019-06-26T05:09:15.483Z,69.79
2019-06-26T05:10:15.484Z,69.69
2019-06-26T05:11:15.464Z,69.49
2019-06-26T05:12:15.455Z,69.39
2019-06-26T05:13:15.438Z,69.26
2019-06-26T05:14:15.430Z,68.96
2019-06-26T05:15:15.423Z,69.39
2019-06-26T05:16:19.257Z,69.06
2019-06-26T05:17:15.392Z,68.86
2019-06-26T05:18:15.382Z,69.26
2019-06-26T05:19:15.392Z,68.96
2019-06-26T05:20:15.369Z,68.96
2019-06-26T05:21:15.351Z,69.16
2019-06-26T05:22:15.454Z,69.16
2019-06-26T05:23:15.331Z,69.16
2019-06-26T05:24:15.374Z,69.26
2019-06-26T05:25:15.363Z,68.53
2019-06-26T05:26:15.296Z,68.24
2019-06-26T05:27:15.308Z,68.04
2019-06-26T05:28:15.314Z,67.61
2019-06-26T05:29:15.261Z,67.08
2019-06-26T05:30:15.264Z,66.69
2019-06-26T05:31:15.239Z,67.08
2019-06-26T05:32:15.234Z,65.66
2019-06-26T05:33:15.232Z,64.94
2019-06-26T05:34:15.206Z,64.54
2019-06-26T05:35:15.208Z,65.01
2019-06-26T05:36:15.183Z,64.61
2019-06-26T05:37:15.171Z,64.09
2019-06-26T05:38:15.164Z,64.39
2019-06-26T05:39:15.151Z,63.20
2019-06-26T05:40:15.141Z,63.96
2019-06-26T05:41:15.136Z,63.56
2019-06-26T05:42:15.124Z,62.87
2019-06-26T05:43:15.106Z,62.74
2019-06-26T05:44:15.096Z,62.65
2019-06-26T05:45:15.083Z,62.41
2019-06-26T05:46:30.056Z,62.12
2019-06-26T05:47:16.066Z,61.60
2019-06-26T05:48:17.799Z,60.98
2019-06-26T05:49:15.101Z,60.78
2019-06-26T05:50:15.045Z,60.39
2019-06-26T05:51:15.033Z,60.09
2019-06-26T05:52:16.740Z,59.96
2019-06-26T05:53:14.998Z,59.67
2019-06-26T05:54:15.000Z,59.74
2019-06-26T05:55:14.976Z,59.34
2019-06-26T05:56:14.976Z,59.25
2019-06-26T05:57:14.955Z,58.43
2019-06-26T05:58:14.947Z,58.53
2019-06-26T05:59:14.934Z,58.70
2019-06-26T06:00:14.923Z,58.11
2019-06-26T06:01:14.919Z,57.81
2019-06-26T06:02:14.905Z,57.51
2019-06-26T06:03:14.889Z,57.81
2019-06-26T06:04:14.880Z,58.28
2019-06-26T06:05:14.876Z,56.99
2019-06-26T06:06:14.866Z,56.90
2019-06-26T06:07:14.846Z,56.31
2019-06-26T06:08:14.836Z,56.38
2019-06-26T06:09:14.827Z,56.60
2019-06-26T06:10:14.816Z,56.38
2019-06-26T06:11:14.816Z,55.99
2019-06-26T06:12:14.792Z,55.66
2019-06-26T06:13:14.781Z,55.47
2019-06-26T06:14:14.774Z,55.57
2019-06-26T06:15:14.760Z,55.66
2019-06-26T06:16:14.763Z,55.64
2019-06-26T06:17:14.738Z,55.74
2019-06-26T06:18:14.727Z,55.44
2019-06-26T06:19:14.718Z,54.85
2019-06-26T06:20:14.705Z,54.27
2019-06-26T06:21:14.697Z,54.33
2019-06-26T06:22:14.693Z,54.02
2019-06-26T06:23:14.673Z,53.33
2019-06-26T06:24:14.665Z,53.20
2019-06-26T06:25:14.655Z,53.40
2019-06-26T06:26:14.641Z,52.72
2019-06-26T06:27:14.639Z,52.52
2019-06-26T06:28:14.619Z,52.59
2019-06-26T06:29:14.609Z,52.30
2019-06-26T06:30:14.603Z,52.40
2019-06-26T06:31:14.588Z,52.56
2019-06-26T06:32:14.585Z,51.78
2019-06-26T06:33:14.566Z,50.98
2019-06-26T06:34:14.556Z,51.07
2019-06-26T06:35:14.544Z,50.76
2019-06-26T06:36:14.535Z,50.37
2019-06-26T06:37:14.534Z,50.66
2019-06-26T06:38:14.512Z,50.66
2019-06-26T06:39:14.504Z,50.54
2019-06-26T06:40:14.490Z,49.95
2019-06-26T06:41:14.487Z,50.05
2019-06-26T06:42:14.484Z,49.55
2019-06-26T06:43:14.462Z,49.95
2019-06-26T06:44:14.448Z,49.55
2019-06-26T06:45:14.441Z,48.97
2019-06-26T06:46:14.428Z,49.43
2019-06-26T06:47:14.427Z,48.94
2019-06-26T06:48:14.406Z,49.33
2019-06-26T06:49:14.395Z,49.14
2019-06-26T06:50:14.386Z,48.94
2019-06-26T06:51:14.376Z,49.14
2019-06-26T06:52:16.649Z,48.93
2019-06-26T06:53:14.353Z,47.75
2019-06-26T06:54:14.343Z,48.44
2019-06-26T06:55:14.334Z,48.24
2019-06-26T06:56:14.322Z,48.80
2019-06-26T06:57:14.312Z,47.83
2019-06-26T06:58:14.310Z,47.36
2019-06-26T06:59:14.292Z,47.36
2019-06-26T07:00:14.283Z,47.73
2019-06-26T07:01:14.271Z,47.36
2019-06-26T07:02:14.259Z,48.14
2019-06-26T07:03:14.259Z,48.55
2019-06-26T07:04:14.240Z,48.94
2019-06-26T07:05:14.232Z,48.94
2019-06-26T07:06:14.221Z,49.43
2019-06-26T07:07:14.206Z,48.58
2019-06-26T07:08:14.205Z,48.68
2019-06-26T07:09:14.185Z,48.99
2019-06-26T07:10:14.177Z,50.10
2019-06-26T07:11:14.170Z,50.61
2019-06-26T07:12:14.154Z,50.71
2019-06-26T07:13:14.154Z,50.54
2019-06-26T07:14:14.147Z,50.42
2019-06-26T07:15:14.122Z,50.73
2019-06-26T07:16:14.121Z,50.44
2019-06-26T07:17:20.581Z,51.12
2019-06-26T07:18:15.098Z,50.54
2019-06-26T07:19:14.080Z,51.25
2019-06-26T07:20:14.070Z,51.05
2019-06-26T07:21:14.059Z,51.83
2019-06-26T07:22:14.054Z,50.66
2019-06-26T07:23:14.047Z,51.03
2019-06-26T07:24:14.030Z,51.32
2019-06-26T07:25:14.021Z,51.25
2019-06-26T07:26:14.009Z,51.34
2019-06-26T07:27:13.996Z,51.54
2019-06-26T07:28:14.082Z,51.34
2019-06-26T07:29:13.976Z,51.37
2019-06-26T07:30:13.965Z,51.54
2019-06-26T07:31:13.957Z,52.23
2019-06-26T07:32:13.944Z,51.73
2019-06-26T07:33:13.959Z,51.66
2019-06-26T07:34:13.923Z,51.46
2019-06-26T07:35:13.921Z,51.64
2019-06-26T07:36:13.916Z,50.46
2019-06-26T07:37:13.898Z,50.56
2019-06-26T07:38:13.892Z,50.54
2019-06-26T07:39:13.874Z,49.95
2019-06-26T07:40:13.862Z,49.73
2019-06-26T07:41:13.857Z,48.94
2019-06-26T07:42:13.842Z,49.14
2019-06-26T07:43:16.426Z,49.43
2019-06-26T07:44:13.818Z,48.94
2019-06-26T07:45:13.810Z,48.75
2019-06-26T07:46:13.798Z,49.73
2019-06-26T07:47:22.970Z,49.24
2019-06-26T07:48:14.791Z,47.77
2019-06-26T07:49:13.767Z,48.65
2019-06-26T07:50:13.760Z,49.53
2019-06-26T07:51:13.745Z,49.04
2019-06-26T07:52:13.735Z,48.24
2019-06-26T07:53:13.726Z,48.72
2019-06-26T07:54:13.730Z,48.07
2019-06-26T07:55:13.710Z,48.07
2019-06-26T07:56:13.698Z,48.87
2019-06-26T07:57:13.686Z,48.90
2019-06-26T07:58:13.673Z,49.55
2019-06-26T07:59:13.680Z,49.65
2019-06-26T08:00:13.653Z,49.77
2019-06-26T08:01:13.647Z,49.46
2019-06-26T08:02:13.636Z,49.46
2019-06-26T08:03:13.624Z,50.73
2019-06-26T08:04:13.622Z,50.83
2019-06-26T08:05:13.607Z,50.15
2019-06-26T08:06:13.592Z,49.85
2019-06-26T08:07:13.581Z,50.44
2019-06-26T08:08:14.877Z,50.63
2019-06-26T08:09:13.567Z,49.75
2019-06-26T08:10:13.551Z,50.24
2019-06-26T08:11:13.539Z,50.37
2019-06-26T08:12:13.527Z,49.97
2019-06-26T08:13:13.528Z,49.36
2019-06-26T08:14:13.524Z,48.87
2019-06-26T08:15:13.596Z,48.75
2019-06-26T08:16:13.550Z,48.75
2019-06-26T08:17:13.564Z,48.85
2019-06-26T08:18:13.475Z,49.82
2019-06-26T08:19:13.502Z,49.33
2019-06-26T08:20:13.459Z,49.02
2019-06-26T08:21:13.454Z,48.99
2019-06-26T08:22:13.516Z,48.60
2019-06-26T08:23:13.458Z,48.04
2019-06-26T08:24:13.421Z,48.43
2019-06-26T08:25:13.404Z,48.60
2019-06-26T08:26:13.383Z,47.11
2019-06-26T08:27:13.402Z,46.53
2019-06-26T08:28:13.434Z,46.01
2019-06-26T08:29:13.468Z,45.41
2019-06-26T08:30:13.582Z,44.70
2019-06-26T08:31:13.379Z,44.90
2019-06-26T08:32:13.320Z,44.90
2019-06-26T08:33:13.316Z,45.09
2019-06-26T08:34:13.308Z,45.31
2019-06-26T08:35:13.347Z,45.21
2019-06-26T08:36:13.280Z,45.51
2019-06-26T08:37:13.344Z,46.39
2019-06-26T08:38:15.599Z,45.61
2019-06-26T08:39:13.316Z,45.51
2019-06-26T08:40:13.399Z,45.41
2019-06-26T08:41:13.231Z,45.61
2019-06-26T08:42:13.219Z,45.41
2019-06-26T08:43:13.223Z,44.94
2019-06-26T08:44:13.200Z,45.51
2019-06-26T08:45:13.198Z,45.31
2019-06-26T08:46:13.174Z,45.72
2019-06-26T08:47:13.168Z,45.21
2019-06-26T08:48:19.358Z,44.82
2019-06-26T08:49:25.074Z,44.90
2019-06-26T08:50:14.150Z,45.09
2019-06-26T08:51:13.124Z,44.87
2019-06-26T08:52:13.119Z,44.87
2019-06-26T08:53:13.110Z,44.66
2019-06-26T08:54:13.100Z,43.39
2019-06-26T08:55:13.093Z,43.49
2019-06-26T08:56:13.076Z,42.59
2019-06-26T08:57:13.064Z,43.57
2019-06-26T08:58:13.052Z,43.47
2019-06-26T08:59:13.043Z,42.69
2019-06-26T09:00:13.046Z,42.86
2019-06-26T09:01:13.031Z,42.16
2019-06-26T09:02:13.021Z,41.86
2019-06-26T09:03:13.002Z,41.55
2019-06-26T09:04:12.995Z,41.83
2019-06-26T09:05:12.993Z,41.61
2019-06-26T09:06:12.973Z,41.78
2019-06-26T09:07:12.963Z,40.60
2019-06-26T09:08:13.052Z,39.82
2019-06-26T09:09:12.947Z,40.41
2019-06-26T09:10:12.944Z,40.11
2019-06-26T09:11:12.925Z,40.87
2019-06-26T09:12:12.915Z,39.69
2019-06-26T09:13:12.906Z,39.37
2019-06-26T09:14:12.896Z,38.58
2019-06-26T09:15:12.904Z,39.74
2019-06-26T09:16:12.886Z,39.53
2019-06-26T09:17:12.869Z,38.48
2019-06-26T09:18:12.895Z,38.78
2019-06-26T09:19:12.854Z,39.06
2019-06-26T09:20:12.947Z,39.62
2019-06-26T09:21:12.889Z,39.53
2019-06-26T09:22:12.821Z,38.54
2019-06-26T09:23:12.811Z,38.45
2019-06-26T09:24:12.801Z,38.43
2019-06-26T09:25:21.756Z,38.53
2019-06-26T09:26:13.783Z,38.31
2019-06-26T09:27:14.988Z,38.10
2019-06-26T09:28:12.783Z,37.40
2019-06-26T09:29:12.775Z,37.19
2019-06-26T09:30:12.898Z,37.29
2019-06-26T09:31:12.737Z,37.38
2019-06-26T09:32:12.742Z,36.52
2019-06-26T09:33:12.721Z,35.55
2019-06-26T09:34:12.720Z,35.63
2019-06-26T09:35:12.715Z,36.11
2019-06-26T09:36:12.703Z,36.11
2019-06-26T09:37:12.686Z,36.00
2019-06-26T09:38:12.825Z,36.38
2019-06-26T09:39:12.665Z,37.25
2019-06-26T09:40:12.658Z,36.27
2019-06-26T09:41:12.654Z,35.88
2019-06-26T09:42:12.640Z,35.88
2019-06-26T09:43:12.628Z,35.71
2019-06-26T09:44:12.621Z,35.59
2019-06-26T09:45:12.626Z,35.61
2019-06-26T09:46:12.609Z,36.09
2019-06-26T09:47:15.605Z,35.90
2019-06-26T09:48:12.583Z,36.19
2019-06-26T09:49:12.611Z,36.59
2019-06-26T09:50:12.564Z,36.38
2019-06-26T09:51:12.565Z,36.48
2019-06-26T09:52:12.605Z,35.88
2019-06-26T09:53:12.625Z,35.67
2019-06-26T09:54:12.536Z,35.67
2019-06-26T09:55:12.521Z,35.56
2019-06-26T09:56:12.539Z,35.58
2019-06-26T09:57:12.503Z,35.48
2019-06-26T09:58:13.489Z,35.08
2019-06-26T09:59:12.487Z,34.98
2019-06-26T10:00:12.483Z,34.30
2019-06-26T10:01:12.659Z,35.56
2019-06-26T10:02:12.461Z,34.98
2019-06-26T10:03:12.451Z,34.59
2019-06-26T10:04:12.489Z,34.40
2019-06-26T10:05:12.434Z,34.78
2019-06-26T10:06:12.438Z,34.88
2019-06-26T10:07:12.427Z,34.48
2019-06-26T10:08:12.412Z,34.27
2019-06-26T10:09:12.400Z,34.46
2019-06-26T10:10:12.399Z,33.87
2019-06-26T10:11:12.412Z,33.97
2019-06-26T10:12:12.374Z,32.81
2019-06-26T10:13:12.417Z,33.87
2019-06-26T10:14:12.357Z,33.39
2019-06-26T10:15:12.348Z,32.81
2019-06-26T10:16:12.354Z,33.37
2019-06-26T10:17:12.333Z,32.81
2019-06-26T10:18:12.326Z,32.43
2019-06-26T10:19:12.317Z,32.90
2019-06-26T10:20:12.316Z,33.10
2019-06-26T10:21:12.301Z,33.00
2019-06-26T10:22:12.317Z,33.67
2019-06-26T10:23:12.282Z,32.62
2019-06-26T10:24:12.276Z,33.39
2019-06-26T10:25:12.278Z,32.31
2019-06-26T10:26:12.261Z,32.21
2019-06-26T10:27:12.259Z,31.74
2019-06-26T10:28:12.246Z,32.52
2019-06-26T10:29:12.242Z,32.14
2019-06-26T10:30:12.225Z,32.33
2019-06-26T10:31:12.216Z,32.81
2019-06-26T10:32:12.218Z,32.14
2019-06-26T10:33:12.200Z,31.18
2019-06-26T10:34:12.194Z,31.65
2019-06-26T10:35:12.184Z,32.03
2019-06-26T10:36:12.177Z,31.45
2019-06-26T10:37:12.175Z,30.87
2019-06-26T10:38:12.158Z,32.23
2019-06-26T10:39:12.262Z,32.52
2019-06-26T10:40:15.988Z,32.81
2019-06-26T10:41:12.150Z,32.31
2019-06-26T10:42:12.142Z,31.74
2019-06-26T10:43:12.127Z,32.60
2019-06-26T10:44:12.111Z,32.71
2019-06-26T10:45:12.252Z,31.95
2019-06-26T10:46:12.136Z,32.43
2019-06-26T10:47:12.103Z,32.70
2019-06-26T10:48:12.088Z,32.03
2019-06-26T10:49:25.806Z,31.72
2019-06-26T10:50:13.063Z,31.53
2019-06-26T10:51:12.053Z,31.61
2019-06-26T10:52:12.043Z,31.32
2019-06-26T10:53:12.048Z,31.02
2019-06-26T10:54:12.035Z,31.02
2019-06-26T10:55:12.039Z,31.11
2019-06-26T10:56:12.022Z,30.92
2019-06-26T10:57:12.002Z,31.02
2019-06-26T10:58:12.150Z,31.70
2019-06-26T10:59:11.985Z,31.90
2019-06-26T11:00:11.984Z,32.28
2019-06-26T11:01:11.969Z,32.17
2019-06-26T11:02:11.964Z,31.49
2019-06-26T11:03:11.961Z,31.40
2019-06-26T11:04:11.947Z,30.71
2019-06-26T11:05:11.948Z,31.11
2019-06-26T11:06:11.931Z,30.81
2019-06-26T11:07:11.931Z,31.20
2019-06-26T11:08:11.958Z,31.10
2019-06-26T11:09:11.907Z,30.71
2019-06-26T11:10:11.907Z,31.29
2019-06-26T11:11:11.887Z,31.59
2019-06-26T11:12:12.039Z,31.21
2019-06-26T11:13:11.939Z,31.40
2019-06-26T11:14:11.862Z,30.82
2019-06-26T11:15:11.863Z,30.84
2019-06-26T11:16:11.860Z,31.03
2019-06-26T11:17:11.845Z,31.23
2019-06-26T11:18:11.840Z,31.90
2019-06-26T11:19:11.824Z,31.99
2019-06-26T11:20:11.823Z,31.70
2019-06-26T11:21:11.810Z,31.23
2019-06-26T11:22:11.813Z,31.32
2019-06-26T11:23:11.796Z,32.18
2019-06-26T11:24:11.779Z,31.32
2019-06-26T11:25:11.884Z,32.17
2019-06-26T11:26:11.856Z,31.69
2019-06-26T11:27:11.820Z,31.49
2019-06-26T11:28:11.987Z,31.32
2019-06-26T11:29:11.748Z,31.90
2019-06-26T11:30:11.821Z,32.01
2019-06-26T11:31:11.786Z,31.70
2019-06-26T11:32:11.808Z,31.92
2019-06-26T11:33:11.795Z,32.60
2019-06-26T11:34:11.772Z,32.79
2019-06-26T11:35:11.739Z,32.31
2019-06-26T11:36:11.722Z,32.30
2019-06-26T11:37:11.738Z,32.10
2019-06-26T11:38:11.853Z,32.39
2019-06-26T11:39:11.711Z,31.34
2019-06-26T11:40:11.779Z,31.24
2019-06-26T11:41:11.735Z,31.35
2019-06-26T11:42:11.704Z,31.74
2019-06-26T11:43:11.852Z,31.93
2019-06-26T11:44:11.600Z,31.95
2019-06-26T11:45:11.600Z,31.95
2019-06-26T11:46:11.579Z,32.23
2019-06-26T11:47:11.620Z,31.56
2019-06-26T11:48:11.566Z,31.37
2019-06-26T11:49:11.582Z,31.65
2019-06-26T11:50:11.633Z,30.98
2019-06-26T11:51:11.529Z,31.95
2019-06-26T11:52:11.532Z,31.95
2019-06-26T11:53:11.583Z,31.64
2019-06-26T11:54:11.501Z,32.12
2019-06-26T11:55:11.491Z,32.21
2019-06-26T11:56:11.530Z,31.83
2019-06-26T11:57:11.477Z,31.35
2019-06-26T11:58:11.562Z,31.93
2019-06-26T11:59:11.463Z,31.74
2019-06-26T12:00:11.542Z,31.64
2019-06-26T12:01:11.444Z,31.83
2019-06-26T12:02:11.429Z,32.31
2019-06-26T12:03:13.319Z,32.79
2019-06-26T12:04:11.419Z,32.87
2019-06-26T12:05:11.407Z,32.60
2019-06-26T12:06:18.593Z,32.79
2019-06-26T12:07:12.376Z,32.10
2019-06-26T12:08:11.384Z,32.01
2019-06-26T12:09:11.403Z,31.24
2019-06-26T12:10:11.562Z,31.34
2019-06-26T12:11:11.347Z,32.18
2019-06-26T12:12:11.332Z,32.39
2019-06-26T12:13:11.314Z,32.01
2019-06-26T12:14:11.330Z,31.99
2019-06-26T12:15:11.359Z,31.32
2019-06-26T12:16:11.286Z,31.51
2019-06-26T12:17:11.288Z,31.13
2019-06-26T12:18:11.264Z,30.84
2019-06-26T12:19:11.266Z,31.61
2019-06-26T12:20:18.483Z,31.92
2019-06-26T12:21:12.364Z,32.20
2019-06-26T12:22:11.233Z,32.39
2019-06-26T12:23:11.216Z,32.51
2019-06-26T12:24:11.280Z,32.14
2019-06-26T12:25:11.200Z,32.51
2019-06-26T12:26:11.186Z,32.70
2019-06-26T12:27:11.181Z,32.71
2019-06-26T12:28:11.172Z,31.95
2019-06-26T12:29:11.170Z,31.85
2019-06-26T12:30:11.146Z,32.89
2019-06-26T12:31:11.160Z,31.85
2019-06-26T12:32:11.130Z,31.93
2019-06-26T12:33:11.118Z,32.12
2019-06-26T12:34:11.131Z,32.33
2019-06-26T12:35:11.105Z,32.04
2019-06-26T12:36:11.086Z,31.96
2019-06-26T12:37:11.119Z,32.90
2019-06-26T12:38:11.074Z,32.52
2019-06-26T12:39:11.056Z,32.54
2019-06-26T12:40:11.101Z,32.90
2019-06-26T12:41:11.061Z,32.52
2019-06-26T12:42:11.028Z,32.23
2019-06-26T12:43:11.219Z,31.95
2019-06-26T12:44:11.010Z,31.87
2019-06-26T12:45:11.005Z,32.06
2019-06-26T12:46:10.989Z,32.15
2019-06-26T12:47:10.978Z,31.96
2019-06-26T12:48:10.968Z,32.54
2019-06-26T12:49:10.972Z,32.06
2019-06-26T12:50:10.965Z,32.84
2019-06-26T12:51:10.943Z,31.78
2019-06-26T12:52:10.931Z,32.38